createdAt,value
2019-04-30T00:03:50.476Z,22.50
2019-04-30T00:13:58.873Z,22.70
2019-04-30T00:24:08.656Z,22.33
2019-04-30T00:34:10.054Z,21.37
2019-04-30T00:44:15.405Z,23.33
2019-04-30T00:54:22.525Z,21.27
2019-04-30T01:04:32.684Z,21.77
2019-04-30T01:14:38.635Z,22.40
2019-04-30T01:24:44.330Z,22.93
2019-04-30T01:34:53.872Z,22.53
2019-04-30T01:44:56.683Z,21.63
2019-04-30T01:55:01.961Z,19.50
2019-04-30T02:05:08.938Z,20.63
2019-04-30T02:15:14.255Z,20.17
2019-04-30T02:25:19.655Z,21.87
2019-04-30T02:35:47.112Z,19.77
2019-04-30T02:45:55.817Z,18.13
2019-04-30T02:56:02.639Z,16.97
2019-04-30T03:06:07.936Z,18.40
2019-04-30T03:16:14.862Z,16.67
2019-04-30T03:26:20.218Z,18.00
2019-04-30T03:36:26.734Z,18.77
2019-04-30T03:46:32.037Z,17.47
2019-04-30T03:56:39.673Z,15.93
2019-04-30T04:06:49.249Z,15.27
2019-04-30T04:16:54.299Z,14.07
2019-04-30T04:26:59.811Z,15.10
2019-04-30T04:37:05.958Z,16.10
2019-04-30T04:47:12.040Z,17.27
2019-04-30T04:57:19.244Z,17.97
2019-04-30T05:07:24.331Z,17.03
2019-04-30T05:17:32.103Z,17.30
2019-04-30T05:27:36.907Z,16.33
2019-04-30T05:37:42.279Z,16.73
2019-04-30T05:47:50.176Z,15.03
2019-04-30T05:57:56.537Z,15.00
2019-04-30T06:08:01.782Z,15.57
2019-04-30T06:18:13.499Z,13.73
2019-04-30T06:28:14.337Z,13.10
2019-04-30T06:38:19.614Z,11.77
2019-04-30T06:48:26.102Z,11.17
2019-04-30T06:58:31.490Z,10.33
2019-04-30T07:08:55.839Z,9.60
2019-04-30T07:19:01.534Z,9.33
2019-04-30T07:29:06.984Z,8.97
2019-04-30T07:39:12.388Z,9.07
2019-04-30T07:49:20.427Z,9.67
2019-04-30T07:59:24.873Z,8.13
2019-04-30T08:09:39.166Z,7.87
2019-04-30T08:19:38.797Z,8.97
2019-04-30T08:29:44.798Z,8.87
2019-04-30T08:39:50.312Z,9.70
2019-04-30T08:49:55.844Z,8.87
2019-04-30T09:00:01.533Z,8.47
2019-04-30T09:10:09.606Z,8.50
2019-04-30T09:20:15.043Z,7.20
2019-04-30T09:30:20.389Z,8.60
2019-04-30T09:40:25.983Z,7.50
2019-04-30T09:50:31.900Z,7.97
2019-04-30T10:00:39.303Z,7.77
2019-04-30T10:10:58.781Z,8.33
2019-04-30T10:21:04.237Z,8.17
2019-04-30T10:31:09.777Z,7.83
2019-04-30T10:41:16.058Z,8.40
2019-04-30T10:51:21.382Z,7.40
2019-04-30T11:01:29.063Z,7.83
2019-04-30T11:11:34.291Z,7.13
2019-04-30T11:21:39.601Z,7.63
2019-04-30T11:31:54.286Z,6.60
2019-04-30T11:42:00.838Z,6.80
2019-04-30T11:52:06.721Z,6.83
2019-04-30T12:02:39.310Z,6.00
2019-04-30T12:12:44.733Z,6.67
2019-04-30T12:22:50.124Z,6.50
2019-04-30T12:32:56.854Z,6.53
2019-04-30T12:43:02.179Z,6.17
2019-04-30T12:53:11.078Z,6.50
2019-04-30T13:03:16.575Z,6.20
2019-04-30T13:13:22.221Z,6.53
2019-04-30T13:23:29.657Z,6.00
2019-04-30T13:33:43.167Z,6.37
2019-04-30T13:44:10.538Z,6.10
2019-04-30T13:54:16.823Z,7.23
2019-04-30T14:04:39.776Z,5.87
2019-04-30T14:14:45.071Z,7.00
2019-04-30T14:24:50.447Z,6.80
2019-04-30T14:34:58.817Z,6.23
2019-04-30T14:45:17.507Z,6.70
2019-04-30T14:55:42.106Z,6.33
2019-04-30T15:05:51.350Z,12.73
2019-04-30T15:15:54.646Z,6.70
2019-04-30T15:26:00.309Z,6.70
2019-04-30T15:36:06.422Z,5.83
2019-04-30T15:46:11.814Z,6.50
2019-04-30T15:56:19.173Z,5.73
2019-04-30T16:06:24.286Z,5.87
2019-04-30T16:16:33.688Z,5.57
2019-04-30T16:26:49.323Z,5.73
2019-04-30T16:36:46.608Z,5.97
2019-04-30T16:46:52.066Z,6.40
2019-04-30T16:57:05.954Z,5.70
2019-04-30T17:07:18.651Z,5.97
2019-04-30T17:17:23.630Z,5.70
2019-04-30T17:27:29.417Z,6.23
2019-04-30T17:37:34.830Z,7.10
2019-04-30T17:47:40.279Z,7.60
2019-04-30T17:57:45.831Z,7.40
2019-04-30T18:07:51.275Z,6.70
2019-04-30T18:18:08.549Z,6.40
2019-04-30T18:28:14.513Z,6.83
2019-04-30T18:38:20.005Z,6.33
2019-04-30T18:48:25.350Z,6.73
2019-04-30T18:58:39.217Z,7.20
2019-04-30T19:08:51.267Z,8.00
2019-04-30T19:19:06.321Z,8.03
2019-04-30T19:29:11.709Z,8.47
2019-04-30T19:39:19.958Z,7.97
2019-04-30T19:49:25.592Z,8.50
2019-04-30T19:59:31.122Z,8.70
2019-04-30T20:09:36.511Z,9.00
2019-04-30T20:19:41.945Z,10.10
2019-04-30T20:29:51.524Z,8.80
2019-04-30T20:40:11.029Z,10.03
2019-04-30T20:50:16.636Z,10.47
2019-04-30T21:00:22.088Z,11.00
2019-04-30T21:10:29.249Z,11.33
2019-04-30T21:20:34.442Z,13.77
2019-04-30T21:30:40.077Z,10.43
2019-04-30T21:40:45.590Z,11.20
2019-04-30T21:50:50.904Z,10.80
2019-04-30T22:01:23.859Z,10.90
2019-04-30T22:11:30.270Z,11.53
2019-04-30T22:21:35.631Z,10.57
2019-04-30T22:31:40.969Z,9.80
2019-04-30T22:41:46.727Z,12.07
2019-04-30T22:51:53.053Z,14.07
2019-04-30T23:02:08.382Z,13.87
2019-04-30T23:12:13.776Z,14.07
2019-04-30T23:22:19.146Z,12.90
2019-04-30T23:32:24.330Z,14.33
2019-04-30T23:42:29.605Z,13.20
2019-04-30T23:52:34.847Z,13.83
